Time;durP1;ratioP1;P1;durP2;ratioP2;P2;SDS_P1;SDS_P2;PMS_P1;PMS_P2;Temp;Humidity;BMP_temperature;BMP_pressure;BME280_temperature;BME280_humidity;BME280_pressure;Samples;Min_cycle;Max_cycle;Signal;HPM_P1;HPM_P2
2022/08/27 00:02:01;;;;;;;13.00;6.65;;;19.10;99.90;;;;;;4990488;28;20484;-86
2022/08/27 00:04:29;;;;;;;14.07;7.22;;;19.00;99.90;;;;;;4991742;28;20409;-86
2022/08/27 00:06:58;;;;;;;12.07;7.68;;;19.00;99.90;;;;;;4991734;28;20404;-86
2022/08/27 00:09:27;;;;;;;12.38;7.20;;;19.00;99.90;;;;;;4987958;28;20447;-86
2022/08/27 00:11:56;;;;;;;14.00;7.50;;;19.00;99.90;;;;;;4991716;28;20986;-86
2022/08/27 00:14:26;;;;;;;15.27;7.53;;;19.00;99.90;;;;;;4990738;28;20408;-86
2022/08/27 00:16:55;;;;;;;13.93;7.60;;;18.90;99.90;;;;;;5006573;28;20484;-85
2022/08/27 00:19:23;;;;;;;17.63;8.35;;;18.90;99.90;;;;;;5006071;28;20399;-87
2022/08/27 00:21:51;;;;;;;13.63;8.13;;;18.90;99.90;;;;;;5006547;28;20495;-86
2022/08/27 00:24:19;;;;;;;13.00;7.20;;;18.90;99.90;;;;;;5006427;28;20404;-84
2022/08/27 00:26:47;;;;;;;15.90;7.47;;;18.90;99.90;;;;;;4991749;28;20459;-85
2022/08/27 00:29:16;;;;;;;14.35;7.88;;;18.90;99.90;;;;;;4991773;28;20463;-86
2022/08/27 00:31:43;;;;;;;14.30;7.73;;;18.90;99.90;;;;;;4990045;28;20412;-87
2022/08/27 00:34:20;;;;;;;13.48;8.18;;;18.80;99.90;;;;;;4991340;28;20939;-86
2022/08/27 00:36:48;;;;;;;14.20;8.48;;;18.90;99.90;;;;;;4990875;28;20405;-87
2022/08/27 00:39:16;;;;;;;13.07;8.40;;;18.90;99.90;;;;;;4990716;28;20959;-86
2022/08/27 00:41:44;;;;;;;11.95;8.57;;;18.90;99.90;;;;;;4993806;28;20500;-87
2022/08/27 00:44:12;;;;;;;12.07;8.02;;;18.90;99.90;;;;;;4977610;28;20448;-86
2022/08/27 00:46:49;;;;;;;14.30;8.80;;;18.90;99.90;;;;;;5001730;28;20409;-84
2022/08/27 00:49:29;;;;;;;12.70;8.18;;;18.90;99.90;;;;;;4993187;28;20394;-86
2022/08/27 00:52:01;;;;;;;13.13;8.77;;;18.90;99.90;;;;;;4995049;28;20444;-84
2022/08/27 00:54:31;;;;;;;11.30;7.70;;;18.90;99.90;;;;;;4993304;28;20503;-84
2022/08/27 00:57:00;;;;;;;16.73;8.13;;;18.90;99.90;;;;;;4995014;28;20393;-86
2022/08/27 00:59:29;;;;;;;13.25;8.18;;;18.90;99.90;;;;;;5292442;22;20549;-88
2022/08/27 01:02:17;;;;;;;16.48;8.75;;;18.90;99.90;;;;;;4952534;29;20894;-88
2022/08/27 01:04:59;;;;;;;15.57;8.77;;;18.90;99.90;;;;;;4940017;29;20497;-88
2022/08/27 01:07:30;;;;;;;12.83;8.37;;;18.80;99.90;;;;;;4969372;28;20404;-87
2022/08/27 01:10:01;;;;;;;11.43;8.18;;;18.80;99.90;;;;;;4954371;29;20436;-87
2022/08/27 01:12:31;;;;;;;11.30;8.40;;;18.90;99.90;;;;;;4961664;28;20416;-88
2022/08/27 01:15:03;;;;;;;13.98;8.60;;;18.80;99.90;;;;;;4954181;29;21010;-87
2022/08/27 01:17:31;;;;;;;15.00;8.70;;;18.70;99.90;;;;;;4953210;29;20400;-87
2022/08/27 01:20:03;;;;;;;13.98;7.70;;;18.70;99.90;;;;;;4962737;28;20406;-88
2022/08/27 01:22:34;;;;;;;14.57;8.93;;;18.80;99.90;;;;;;4961822;28;20443;-89
2022/08/27 01:25:11;;;;;;;16.75;9.07;;;18.70;99.90;;;;;;4955188;28;20467;-87
2022/08/27 01:27:41;;;;;;;13.10;8.73;;;18.70;99.90;;;;;;4949107;29;20413;-88
2022/08/27 01:30:15;;;;;;;13.35;9.57;;;18.70;99.90;;;;;;4961804;28;20432;-89
2022/08/27 01:32:44;;;;;;;16.80;9.60;;;18.70;99.90;;;;;;4940238;29;20413;-88
2022/08/27 01:35:13;;;;;;;14.15;8.18;;;18.70;99.90;;;;;;4969023;28;20414;-88
2022/08/27 01:37:43;;;;;;;12.80;8.85;;;18.80;99.90;;;;;;4955278;28;20404;-88
2022/08/27 01:40:14;;;;;;;14.95;9.23;;;18.70;99.90;;;;;;4954160;29;20411;-87
2022/08/27 01:42:49;;;;;;;13.07;9.68;;;18.70;99.90;;;;;;4954993;28;20762;-88
2022/08/27 01:45:24;;;;;;;13.67;9.50;;;18.70;99.90;;;;;;4954834;28;20794;-88
2022/08/27 01:47:52;;;;;;;14.50;8.70;;;18.70;99.90;;;;;;4934682;29;20410;-87
2022/08/27 01:50:24;;;;;;;15.97;9.97;;;18.80;99.90;;;;;;4961276;28;20936;-89
2022/08/27 01:52:54;;;;;;;14.02;8.55;;;18.80;99.90;;;;;;4959942;28;20495;-87
2022/08/27 01:55:24;;;;;;;12.93;9.15;;;18.70;99.90;;;;;;4937674;29;20412;-88
2022/08/27 01:57:54;;;;;;;14.35;8.98;;;18.70;99.90;;;;;;4945665;29;20450;-87
2022/08/27 02:00:25;;;;;;;12.07;8.50;;;18.70;99.90;;;;;;4954831;28;20407;-87
2022/08/27 02:02:54;;;;;;;12.03;8.23;;;18.70;99.90;;;;;;4966459;28;20932;-88
2022/08/27 02:05:24;;;;;;;15.90;9.63;;;18.70;99.90;;;;;;4963521;28;20408;-88
2022/08/27 02:07:53;;;;;;;13.45;8.48;;;18.70;99.90;;;;;;4953458;29;20797;-88
2022/08/27 02:10:31;;;;;;;15.95;10.07;;;18.70;99.90;;;;;;4960109;28;20408;-87
2022/08/27 02:12:59;;;;;;;13.15;9.35;;;18.60;99.90;;;;;;4953956;29;20418;-87
2022/08/27 02:15:28;;;;;;;16.45;11.55;;;18.70;99.90;;;;;;4936655;29;20469;-87
2022/08/27 02:17:56;;;;;;;17.73;10.43;;;18.60;99.90;;;;;;4954898;28;20397;-88
2022/08/27 02:20:24;;;;;;;13.45;9.52;;;18.70;99.90;;;;;;4954396;28;20431;-88
2022/08/27 02:22:56;;;;;;;14.77;9.23;;;18.60;99.90;;;;;;4954318;29;20412;-87
2022/08/27 02:25:26;;;;;;;14.25;9.13;;;18.60;99.90;;;;;;4953163;29;20404;-88
2022/08/27 02:28:01;;;;;;;15.65;9.80;;;18.60;99.90;;;;;;4954801;28;20403;-86
2022/08/27 02:30:33;;;;;;;13.82;9.27;;;18.60;99.90;;;;;;4964353;28;20905;-88
2022/08/27 02:33:03;;;;;;;18.00;10.18;;;18.70;99.90;;;;;;4960790;28;20503;-87
2022/08/27 02:35:33;;;;;;;15.13;9.82;;;18.60;99.90;;;;;;4952897;29;20412;-88
2022/08/27 02:38:02;;;;;;;16.05;10.80;;;18.60;99.90;;;;;;4943970;29;20408;-88
2022/08/27 02:40:30;;;;;;;16.23;11.57;;;18.60;99.90;;;;;;4952937;29;20464;-87
2022/08/27 02:42:58;;;;;;;12.65;9.65;;;18.60;99.90;;;;;;4959891;28;20460;-88
2022/08/27 02:45:25;;;;;;;12.57;9.63;;;18.60;99.90;;;;;;4953000;28;20410;-87
2022/08/27 02:47:53;;;;;;;15.05;9.85;;;18.60;99.90;;;;;;4954375;28;20414;-87
2022/08/27 02:50:21;;;;;;;14.43;10.10;;;18.60;99.90;;;;;;4960711;28;20398;-87
2022/08/27 02:52:54;;;;;;;12.75;9.93;;;18.60;99.90;;;;;;4952781;29;20503;-87
2022/08/27 02:55:22;;;;;;;15.53;9.97;;;18.60;99.90;;;;;;4952767;28;20919;-88
2022/08/27 02:57:50;;;;;;;14.35;9.88;;;18.60;99.90;;;;;;4960028;28;20419;-88
2022/08/27 03:00:20;;;;;;;12.77;10.02;;;18.60;99.90;;;;;;4955654;28;20412;-87
2022/08/27 03:02:49;;;;;;;14.63;9.75;;;18.60;99.90;;;;;;4968768;28;20419;-89
2022/08/27 03:05:18;;;;;;;15.50;10.57;;;18.60;99.90;;;;;;4953437;28;20419;-88
2022/08/27 03:07:46;;;;;;;16.63;10.02;;;18.60;99.90;;;;;;4952072;29;20979;-87
2022/08/27 03:10:16;;;;;;;13.82;9.35;;;18.60;99.90;;;;;;4958717;28;20922;-89
2022/08/27 03:12:44;;;;;;;13.07;10.43;;;18.60;99.90;;;;;;4959423;28;20411;-90
2022/08/27 03:15:15;;;;;;;16.02;10.63;;;18.60;99.90;;;;;;4945530;29;20465;-89
2022/08/27 03:20:29;;;;;;;12.77;9.52;;;18.50;99.90;;;;;;4946334;29;20408;-88
2022/08/27 03:22:58;;;;;;;14.07;9.25;;;18.50;99.90;;;;;;4958265;28;20400;-88
2022/08/27 03:25:26;;;;;;;15.07;9.55;;;18.60;99.90;;;;;;4951549;29;20438;-88
2022/08/27 03:27:54;;;;;;;15.60;10.35;;;18.50;99.90;;;;;;4943953;28;20419;-90
2022/08/27 03:30:22;;;;;;;13.68;9.65;;;18.50;99.90;;;;;;4934425;29;20405;-87
2022/08/27 03:32:50;;;;;;;13.00;9.90;;;18.50;99.90;;;;;;4957938;28;20399;-89
2022/08/27 03:35:19;;;;;;;13.13;9.93;;;18.50;99.90;;;;;;4952089;29;20412;-89
2022/08/27 03:37:48;;;;;;;15.73;10.98;;;18.50;99.90;;;;;;4953345;28;20403;-88
2022/08/27 03:40:16;;;;;;;15.80;10.77;;;18.40;99.90;;;;;;4953236;28;20444;-87
2022/08/27 03:42:44;;;;;;;16.63;10.00;;;18.50;99.90;;;;;;4951113;28;20390;-87
2022/08/27 03:45:12;;;;;;;15.50;11.23;;;18.50;99.90;;;;;;4953374;29;20710;-87
2022/08/27 03:47:41;;;;;;;16.47;11.00;;;18.50;99.90;;;;;;4966667;28;20902;-88
2022/08/27 03:50:10;;;;;;;13.75;10.48;;;18.50;99.90;;;;;;4949143;29;20398;-88
2022/08/27 03:52:38;;;;;;;12.45;9.80;;;18.50;99.90;;;;;;4960279;28;20412;-88
2022/08/27 03:55:07;;;;;;;13.37;10.63;;;18.50;99.90;;;;;;4951994;29;20450;-88
2022/08/27 03:57:36;;;;;;;14.68;10.73;;;18.40;99.90;;;;;;4941628;29;20402;-88
2022/08/27 04:00:09;;;;;;;12.93;10.40;;;18.40;99.90;;;;;;4935811;29;20457;-88
2022/08/27 04:02:41;;;;;;;14.43;10.20;;;18.50;99.90;;;;;;4953859;28;20411;-88
2022/08/27 04:05:11;;;;;;;16.40;11.95;;;18.50;99.90;;;;;;4953236;28;20415;-87
2022/08/27 04:07:40;;;;;;;16.23;11.27;;;18.50;99.90;;;;;;4953164;28;20436;-87
2022/08/27 04:10:10;;;;;;;13.95;11.52;;;18.50;99.90;;;;;;4931767;29;20416;-88
2022/08/27 04:12:38;;;;;;;14.00;10.50;;;18.50;99.90;;;;;;4953832;28;20500;-87
2022/08/27 04:15:08;;;;;;;12.95;9.75;;;18.50;99.90;;;;;;4960933;28;20837;-87
2022/08/27 04:17:36;;;;;;;11.40;9.40;;;18.50;99.90;;;;;;4956794;28;20410;-87
2022/08/27 04:20:06;;;;;;;14.73;10.90;;;18.50;99.90;;;;;;4956479;28;20439;-87
2022/08/27 04:22:54;;;;;;;13.63;10.75;;;18.50;99.90;;;;;;4955383;29;20412;-87
2022/08/27 04:25:22;;;;;;;14.20;10.38;;;18.50;99.90;;;;;;4962394;28;20408;-88
2022/08/27 04:27:50;;;;;;;14.82;10.82;;;18.50;99.90;;;;;;4967481;28;20916;-87
2022/08/27 04:30:18;;;;;;;12.27;10.15;;;18.50;99.90;;;;;;4952792;29;20401;-87
2022/08/27 04:32:47;;;;;;;13.45;10.25;;;18.50;99.90;;;;;;4936531;29;20751;-87
2022/08/27 04:35:15;;;;;;;14.77;11.43;;;18.50;99.90;;;;;;4955179;28;20901;-89
2022/08/27 04:37:44;;;;;;;16.20;11.73;;;18.50;99.90;;;;;;4955491;28;20463;-89
2022/08/27 04:40:11;;;;;;;13.18;10.75;;;18.60;99.90;;;;;;4965342;28;20423;-87
2022/08/27 04:42:39;;;;;;;13.90;10.88;;;18.60;99.90;;;;;;4940817;29;20412;-88
2022/08/27 04:45:08;;;;;;;13.93;10.52;;;18.60;99.90;;;;;;4967004;28;20406;-87
2022/08/27 04:47:36;;;;;;;15.30;11.30;;;18.60;99.90;;;;;;4952358;29;20439;-87
2022/08/27 04:50:05;;;;;;;12.60;10.15;;;18.60;99.90;;;;;;4956506;28;20396;-88
2022/08/27 04:52:34;;;;;;;17.43;11.17;;;18.60;99.90;;;;;;4954807;29;20471;-88
2022/08/27 04:55:08;;;;;;;13.43;11.25;;;18.70;99.90;;;;;;4939825;29;20427;-88
2022/08/27 04:57:36;;;;;;;13.87;10.60;;;18.70;99.90;;;;;;4954659;29;20416;-88
2022/08/27 05:00:07;;;;;;;15.73;10.55;;;18.60;99.90;;;;;;4951526;28;20825;-88
2022/08/27 05:02:34;;;;;;;12.35;10.20;;;18.70;99.90;;;;;;4970648;28;20396;-87
2022/08/27 05:05:02;;;;;;;15.07;12.35;;;18.70;99.90;;;;;;4955622;28;20416;-88
2022/08/27 05:07:30;;;;;;;12.82;9.73;;;18.70;99.90;;;;;;4954551;28;20404;-88
2022/08/27 05:09:58;;;;;;;13.23;10.40;;;18.70;99.90;;;;;;4955645;29;20405;-87
2022/08/27 05:12:25;;;;;;;14.60;11.80;;;18.70;99.90;;;;;;4954492;28;20408;-89
2022/08/27 05:14:53;;;;;;;14.50;11.63;;;18.70;99.90;;;;;;4953401;29;20767;-88
2022/08/27 05:17:21;;;;;;;15.82;12.40;;;18.80;99.90;;;;;;4938640;29;20412;-88
2022/08/27 05:19:49;;;;;;;17.40;13.43;;;18.70;99.90;;;;;;4921968;29;20729;-87
2022/08/27 05:22:17;;;;;;;15.60;12.77;;;18.70;99.90;;;;;;4955518;28;20396;-88
2022/08/27 05:24:45;;;;;;;16.87;12.73;;;18.70;99.90;;;;;;4955398;28;20404;-88
2022/08/27 05:27:16;;;;;;;15.85;13.90;;;18.70;99.90;;;;;;4940135;29;20419;-89
2022/08/27 05:29:44;;;;;;;14.40;11.25;;;18.70;99.90;;;;;;4954691;28;20745;-89
2022/08/27 05:32:12;;;;;;;14.35;12.85;;;18.80;99.90;;;;;;4964514;28;20505;-89
2022/08/27 05:34:40;;;;;;;14.80;13.05;;;18.80;99.90;;;;;;4944235;29;20418;-89
2022/08/27 05:37:08;;;;;;;13.55;12.02;;;18.80;99.90;;;;;;4954124;29;20479;-88
2022/08/27 05:39:36;;;;;;;15.60;13.10;;;18.90;99.90;;;;;;4953682;29;20419;-88
2022/08/27 05:42:04;;;;;;;15.52;13.73;;;18.90;99.90;;;;;;4955199;29;20471;-88
2022/08/27 05:44:32;;;;;;;14.60;12.73;;;18.90;99.90;;;;;;4954842;28;20751;-89
2022/08/27 05:47:09;;;;;;;16.15;13.45;;;18.90;99.90;;;;;;4952392;28;20402;-86
2022/08/27 05:49:37;;;;;;;16.83;12.70;;;18.90;99.90;;;;;;4948599;28;20898;-89
2022/08/27 05:52:09;;;;;;;37.17;33.33;;;18.90;99.90;;;;;;4936015;29;20508;-90
2022/08/27 05:54:38;;;;;;;17.13;13.65;;;19.00;99.90;;;;;;4955181;28;20400;-88
2022/08/27 05:57:06;;;;;;;14.85;13.20;;;19.10;99.90;;;;;;4969682;28;20436;-89
2022/08/27 06:02:21;;;;;;;16.25;13.45;;;19.10;99.90;;;;;;4954795;29;20404;-90
2022/08/27 06:04:49;;;;;;;13.82;12.35;;;19.10;99.90;;;;;;4954890;28;20408;-89
2022/08/27 06:07:18;;;;;;;15.73;13.65;;;19.10;99.90;;;;;;4955068;28;20471;-89
2022/08/27 06:09:45;;;;;;;15.50;12.90;;;19.10;99.90;;;;;;4937359;29;20496;-88
2022/08/27 06:12:13;;;;;;;16.50;13.68;;;19.10;99.90;;;;;;4953596;28;20843;-89
2022/08/27 06:14:41;;;;;;;18.23;13.32;;;19.20;99.90;;;;;;4953334;28;20408;-89
2022/08/27 06:17:09;;;;;;;15.88;13.50;;;19.20;99.90;;;;;;4952582;29;20636;-89
2022/08/27 06:19:36;;;;;;;15.10;13.55;;;19.20;99.90;;;;;;4952443;29;20401;-90
2022/08/27 06:22:04;;;;;;;15.00;13.40;;;19.20;99.90;;;;;;4953425;28;20522;-89
2022/08/27 06:24:42;;;;;;;15.25;13.18;;;19.30;99.90;;;;;;4924766;29;20406;-90
2022/08/27 06:27:13;;;;;;;15.43;12.77;;;19.30;99.90;;;;;;4952501;29;20894;-90
2022/08/27 06:29:42;;;;;;;15.52;13.73;;;19.40;99.90;;;;;;4963572;28;20412;-88
2022/08/27 06:32:11;;;;;;;16.15;13.50;;;19.40;99.90;;;;;;4954222;28;20518;-88
2022/08/27 06:34:39;;;;;;;20.13;17.10;;;19.40;99.90;;;;;;4934520;29;20991;-90
2022/08/27 06:37:08;;;;;;;14.57;12.52;;;19.50;99.90;;;;;;4954188;28;20470;-90
2022/08/27 06:39:38;;;;;;;16.67;13.53;;;19.50;99.90;;;;;;4937399;29;20439;-89
2022/08/27 06:42:10;;;;;;;20.67;15.73;;;19.60;99.90;;;;;;4963174;28;20408;-89
2022/08/27 06:44:39;;;;;;;15.55;13.07;;;19.60;99.90;;;;;;4952875;29;20764;-91
2022/08/27 06:47:07;;;;;;;17.92;13.68;;;19.70;99.90;;;;;;4961174;28;20404;-92
2022/08/27 06:49:37;;;;;;;15.18;12.80;;;19.70;99.90;;;;;;4952982;28;20416;-91
2022/08/27 06:52:05;;;;;;;14.57;13.13;;;19.80;99.90;;;;;;4953154;29;20427;-90
2022/08/27 06:54:39;;;;;;;13.70;12.30;;;19.80;99.90;;;;;;4961192;28;20458;-92
2022/08/27 06:57:06;;;;;;;16.85;14.85;;;19.80;99.90;;;;;;4955380;28;20416;-91
2022/08/27 06:59:34;;;;;;;15.77;13.50;;;19.90;99.90;;;;;;4941278;29;20417;-94
2022/08/27 07:02:05;;;;;;;18.80;15.10;;;19.90;99.90;;;;;;4956079;29;20408;-94
2022/08/27 07:04:33;;;;;;;13.90;12.38;;;20.00;99.90;;;;;;4935400;29;20457;-94
2022/08/27 07:07:02;;;;;;;17.13;13.73;;;20.10;99.90;;;;;;4968867;28;20416;-94
2022/08/27 07:09:33;;;;;;;15.30;12.68;;;20.10;99.90;;;;;;4955300;29;20416;-95
2022/08/27 07:12:01;;;;;;;15.52;13.20;;;20.10;99.90;;;;;;4928436;29;20804;-93
2022/08/27 07:14:30;;;;;;;15.03;12.97;;;20.20;99.90;;;;;;4936159;29;20416;-94
2022/08/27 07:17:04;;;;;;;14.18;12.48;;;20.20;99.90;;;;;;4954515;29;20506;-93
2022/08/27 07:19:38;;;;;;;15.55;12.90;;;20.30;99.90;;;;;;4951913;29;20400;-94
2022/08/27 07:22:08;;;;;;;14.40;12.85;;;20.30;99.90;;;;;;4938378;29;20420;-94
2022/08/27 07:24:37;;;;;;;16.13;12.30;;;20.30;99.90;;;;;;4953648;28;20417;-93
2022/08/27 07:27:05;;;;;;;13.93;12.43;;;20.40;99.90;;;;;;4959584;28;20404;-91
2022/08/27 07:29:33;;;;;;;14.57;11.73;;;20.40;99.90;;;;;;4958791;29;20404;-92
2022/08/27 07:32:01;;;;;;;13.73;12.32;;;20.50;99.90;;;;;;4957347;28;20409;-91
2022/08/27 07:34:29;;;;;;;14.02;12.02;;;20.60;99.90;;;;;;4971589;28;20424;-93
2022/08/27 07:36:57;;;;;;;14.70;12.85;;;20.60;99.90;;;;;;4957196;28;20426;-93
2022/08/27 07:39:24;;;;;;;14.13;12.23;;;20.60;99.90;;;;;;4953946;28;20418;-92
2022/08/27 07:44:42;;;;;;;14.20;12.70;;;20.80;99.90;;;;;;4962114;28;20412;-93
2022/08/27 07:47:09;;;;;;;15.48;12.55;;;20.80;99.90;;;;;;4957447;28;20459;-91
2022/08/27 07:49:37;;;;;;;14.40;12.45;;;20.90;99.90;;;;;;4959129;28;20499;-92
2022/08/27 07:52:05;;;;;;;14.70;12.73;;;20.90;99.90;;;;;;4944606;28;20487;-93
2022/08/27 07:54:33;;;;;;;16.73;13.32;;;21.00;99.90;;;;;;4957095;29;20400;-92
2022/08/27 07:57:01;;;;;;;19.42;12.57;;;21.10;99.90;;;;;;4930241;29;20409;-93
2022/08/27 07:59:29;;;;;;;49.27;44.60;;;21.10;99.90;;;;;;4955107;28;20487;-92
2022/08/27 08:01:57;;;;;;;16.02;14.32;;;21.10;99.90;;;;;;4940955;29;20419;-92
2022/08/27 08:04:26;;;;;;;20.45;14.93;;;21.20;99.90;;;;;;4958195;29;20415;-92
2022/08/27 08:06:54;;;;;;;16.90;12.65;;;21.20;99.90;;;;;;4956933;29;20438;-92
2022/08/27 08:09:23;;;;;;;16.13;13.30;;;21.20;99.90;;;;;;4956404;29;20408;-92
2022/08/27 08:11:53;;;;;;;14.52;12.98;;;21.30;99.90;;;;;;4949508;29;20402;-93
2022/08/27 08:14:21;;;;;;;15.77;13.60;;;21.40;99.90;;;;;;4966839;28;20434;-93
2022/08/27 08:16:49;;;;;;;15.57;13.93;;;21.50;99.90;;;;;;4960921;28;20403;-93
2022/08/27 08:19:17;;;;;;;17.02;14.18;;;21.50;99.90;;;;;;4957383;28;20416;-92
2022/08/27 08:21:44;;;;;;;14.40;12.90;;;21.50;99.90;;;;;;4947426;28;20404;-93
2022/08/27 08:24:12;;;;;;;15.80;13.80;;;21.50;99.90;;;;;;4966946;28;20416;-92
2022/08/27 08:26:40;;;;;;;17.90;13.73;;;21.60;99.90;;;;;;4942137;28;20411;-92
2022/08/27 08:29:09;;;;;;;14.88;13.23;;;21.60;99.90;;;;;;4925117;29;20959;-94
2022/08/27 08:31:45;;;;;;;15.35;13.65;;;21.60;99.90;;;;;;4956352;29;20412;-92
2022/08/27 08:34:18;;;;;;;17.25;13.25;;;21.70;99.90;;;;;;4955970;29;20501;-92
2022/08/27 08:36:47;;;;;;;27.08;24.02;;;21.70;99.90;;;;;;4937508;29;20405;-93
2022/08/27 08:39:22;;;;;;;17.38;13.75;;;21.90;99.90;;;;;;4946943;29;20416;-91
2022/08/27 08:41:59;;;;;;;15.90;13.07;;;22.00;99.90;;;;;;4955614;28;20420;-91
2022/08/27 08:44:44;;;;;;;18.75;13.75;;;22.00;99.90;;;;;;4963594;28;20408;-95
2022/08/27 08:47:15;;;;;;;16.57;14.20;;;22.10;99.90;;;;;;4948386;29;20427;-93
2022/08/27 08:50:10;;;;;;;18.02;13.50;;;22.30;99.90;;;;;;4964713;28;20401;-94
2022/08/27 08:52:43;;;;;;;15.55;13.60;;;22.30;99.90;;;;;;4953499;29;20902;-93
2022/08/27 08:55:17;;;;;;;15.37;13.43;;;22.40;99.90;;;;;;4951709;29;20932;-93
2022/08/27 08:58:09;;;;;;;15.10;13.50;;;22.40;99.90;;;;;;4968954;28;20414;-95
2022/08/27 09:00:41;;;;;;;17.95;13.73;;;22.50;99.90;;;;;;4939523;28;20408;-94
2022/08/27 09:03:14;;;;;;;18.80;14.30;;;22.60;99.90;;;;;;4961761;28;20470;-93
2022/08/27 09:05:54;;;;;;;17.20;14.00;;;22.80;99.90;;;;;;4936664;29;20425;-93
2022/08/27 09:08:39;;;;;;;15.05;13.45;;;22.80;99.90;;;;;;4967822;28;20394;-92
2022/08/27 09:11:36;;;;;;;15.32;13.40;;;22.80;99.90;;;;;;4948435;29;20499;-94
2022/08/27 09:14:18;;;;;;;14.60;13.10;;;22.90;99.90;;;;;;4948520;29;20661;-95
2022/08/27 09:16:49;;;;;;;15.15;13.00;;;23.00;99.90;;;;;;4952948;29;20937;-95
2022/08/27 09:19:22;;;;;;;14.80;13.00;;;23.00;99.90;;;;;;4938272;29;20902;-93
2022/08/27 09:22:14;;;;;;;17.03;13.57;;;23.10;99.90;;;;;;4939752;29;20408;-93
2022/08/27 09:25:15;;;;;;;16.13;13.45;;;23.20;99.90;;;;;;4923793;28;20484;-94
2022/08/27 09:27:48;;;;;;;16.70;13.43;;;23.20;99.90;;;;;;4939681;29;20424;-94
2022/08/27 09:30:23;;;;;;;15.30;13.02;;;23.10;99.90;;;;;;4970631;28;20392;-93
2022/08/27 09:33:03;;;;;;;21.65;13.55;;;23.30;99.90;;;;;;4929668;29;20545;-93
2022/08/27 09:35:45;;;;;;;15.50;12.60;;;23.40;99.90;;;;;;4960712;28;20407;-93
2022/08/27 09:38:32;;;;;;;14.30;12.70;;;23.50;99.90;;;;;;4947498;29;20419;-93
2022/08/27 09:41:05;;;;;;;17.00;12.52;;;23.60;99.90;;;;;;4966831;28;20832;-94
2022/08/27 09:43:35;;;;;;;16.75;12.88;;;23.70;99.90;;;;;;4954873;29;20419;-95
2022/08/27 09:46:20;;;;;;;17.20;12.43;;;23.80;99.90;;;;;;4960116;28;20411;-94
2022/08/27 09:48:51;;;;;;;17.67;13.13;;;23.80;99.90;;;;;;4951257;28;20410;-94
2022/08/27 09:51:27;;;;;;;17.88;12.40;;;23.80;99.90;;;;;;4966792;28;21018;-95
2022/08/27 09:54:00;;;;;;;18.65;14.70;;;23.90;99.90;;;;;;4935421;29;20513;-94
2022/08/27 09:56:35;;;;;;;13.52;12.13;;;24.00;99.90;;;;;;4951548;29;20412;-93
2022/08/27 09:59:09;;;;;;;14.70;11.93;;;24.00;99.90;;;;;;4937278;29;20417;-94
2022/08/27 10:01:51;;;;;;;16.52;12.38;;;24.10;99.90;;;;;;4936982;29;20418;-94
2022/08/27 10:04:34;;;;;;;14.80;13.20;;;24.00;99.90;;;;;;4954199;29;20412;-95
2022/08/27 10:07:55;;;;;;;14.00;11.93;;;24.10;99.90;;;;;;4952519;28;20411;-94
2022/08/27 10:10:57;;;;;;;15.20;11.60;;;24.20;99.90;;;;;;4954063;29;20412;-93
2022/08/27 10:13:57;;;;;;;15.20;12.65;;;24.30;99.90;;;;;;4942166;29;20926;-94
2022/08/27 10:16:51;;;;;;;14.87;11.90;;;24.40;99.90;;;;;;4947554;29;20903;-94
2022/08/27 10:19:26;;;;;;;14.55;11.88;;;24.40;99.90;;;;;;4942640;29;20412;-94
2022/08/27 10:22:09;;;;;;;16.90;12.32;;;24.60;99.90;;;;;;4960910;28;20452;-95
2022/08/27 10:24:52;;;;;;;18.67;12.40;;;24.60;99.90;;;;;;4968073;28;20467;-94
2022/08/27 10:27:19;;;;;;;15.25;12.57;;;24.60;99.90;;;;;;4960239;28;20993;-95
2022/08/27 10:29:51;;;;;;;13.48;12.05;;;24.70;99.90;;;;;;4954178;29;20415;-95
2022/08/27 10:32:33;;;;;;;14.52;11.57;;;24.70;99.90;;;;;;4950547;29;20463;-95
2022/08/27 10:35:15;;;;;;;13.50;12.10;;;24.80;99.90;;;;;;4967254;28;20412;-94
2022/08/27 10:37:53;;;;;;;19.38;11.77;;;24.60;99.90;;;;;;4952695;29;20412;-94
2022/08/27 10:40:41;;;;;;;16.27;12.32;;;24.90;99.90;;;;;;4941890;29;20506;-93
2022/08/27 10:43:55;;;;;;;14.32;11.15;;;25.00;99.90;;;;;;4952933;29;20857;-93
2022/08/27 10:46:45;;;;;;;28.60;25.58;;;25.10;99.90;;;;;;4939823;28;20400;-93
2022/08/27 10:49:42;;;;;;;14.90;11.23;;;25.20;99.90;;;;;;4933674;29;20418;-94
2022/08/27 10:52:40;;;;;;;14.07;11.38;;;25.30;99.90;;;;;;4938101;29;20447;-95
2022/08/27 10:55:22;;;;;;;13.45;11.57;;;25.30;99.90;;;;;;4950859;28;20404;-94
2022/08/27 10:58:03;;;;;;;15.13;11.77;;;25.40;99.90;;;;;;4952329;29;20427;-94
2022/08/27 11:00:54;;;;;;;14.75;11.05;;;25.50;99.90;;;;;;4951150;29;21003;-93
2022/08/27 11:04:05;;;;;;;15.50;11.20;;;25.50;99.90;;;;;;4951196;29;20921;-94
2022/08/27 11:07:02;;;;;;;13.50;11.18;;;25.60;99.90;;;;;;4942901;28;20424;-94
2022/08/27 11:09:52;;;;;;;13.93;11.60;;;25.70;99.90;;;;;;4949473;29;20435;-94
2022/08/27 11:12:43;;;;;;;13.53;11.57;;;25.90;99.90;;;;;;4933958;29;20412;-94
2022/08/27 11:15:35;;;;;;;16.45;12.38;;;25.90;99.90;;;;;;4954955;28;20527;-94
2022/08/27 11:18:14;;;;;;;15.27;12.38;;;26.00;99.90;;;;;;4951172;29;20416;-95
2022/08/27 11:21:00;;;;;;;16.97;12.20;;;26.10;99.90;;;;;;4937173;29;20895;-94
2022/08/27 11:24:01;;;;;;;15.60;12.27;;;26.20;99.90;;;;;;4935306;29;20421;-95
2022/08/27 11:26:32;;;;;;;16.90;12.40;;;26.20;99.90;;;;;;4924734;29;20444;-93
2022/08/27 11:29:05;;;;;;;15.27;12.43;;;26.30;99.90;;;;;;4967663;28;20503;-94
2022/08/27 11:31:43;;;;;;;13.23;11.82;;;26.50;99.90;;;;;;4965924;28;20482;-94
2022/08/27 11:34:29;;;;;;;14.90;12.00;;;26.60;99.90;;;;;;4962456;28;20463;-93
2022/08/27 11:37:15;;;;;;;15.40;11.67;;;26.50;99.90;;;;;;4963023;28;20416;-92
2022/08/27 11:40:02;;;;;;;16.50;12.15;;;26.50;99.90;;;;;;4943078;29;20413;-93
2022/08/27 11:42:42;;;;;;;17.60;12.55;;;26.60;99.90;;;;;;4953780;28;20468;-93
2022/08/27 11:45:23;;;;;;;16.08;11.95;;;26.70;99.90;;;;;;4954894;28;20552;-93
2022/08/27 11:47:57;;;;;;;15.27;11.57;;;26.60;99.90;;;;;;4962369;28;20410;-93
2022/08/27 11:50:26;;;;;;;15.82;10.45;;;26.70;99.90;;;;;;4937127;29;20422;-93
2022/08/27 11:53:06;;;;;;;15.02;11.02;;;26.90;99.90;;;;;;4962818;28;20467;-93
2022/08/27 11:55:37;;;;;;;14.18;10.88;;;27.00;99.90;;;;;;4940016;29;20420;-94
2022/08/27 11:58:07;;;;;;;13.18;10.70;;;27.10;99.90;;;;;;4944291;29;20535;-93
2022/08/27 12:00:38;;;;;;;14.68;11.43;;;27.00;99.90;;;;;;4949915;28;20406;-92
2022/08/27 12:03:17;;;;;;;13.40;11.10;;;27.00;99.90;;;;;;4963252;28;20412;-93
2022/08/27 12:06:08;;;;;;;16.17;11.65;;;27.00;99.90;;;;;;4949864;29;20402;-93
2022/08/27 12:08:36;;;;;;;15.52;11.68;;;27.00;99.90;;;;;;4945416;29;20463;-91
2022/08/27 12:11:50;;;;;;;15.50;11.45;;;27.20;99.90;;;;;;4918172;29;20460;-91
2022/08/27 12:14:48;;;;;;;17.55;11.73;;;27.30;99.90;;;;;;4964894;28;20422;-91
2022/08/27 12:18:08;;;;;;;13.40;11.15;;;27.40;99.90;;;;;;4928911;29;20408;-92
2022/08/27 12:20:59;;;;;;;16.25;11.98;;;27.50;99.90;;;;;;4920322;29;20489;-90
2022/08/27 12:24:03;;;;;;;15.63;12.20;;;27.50;99.90;;;;;;4935511;29;20416;-90
2022/08/27 12:26:33;;;;;;;13.00;11.60;;;27.40;99.90;;;;;;4965368;28;20744;-91
2022/08/27 12:29:37;;;;;;;14.35;11.30;;;27.70;99.90;;;;;;4920111;29;20410;-91
2022/08/27 12:32:41;;;;;;;16.65;11.90;;;27.70;99.90;;;;;;4953712;28;20771;-92
2022/08/27 12:35:14;;;;;;;14.93;11.93;;;27.80;99.90;;;;;;4947734;29;20417;-93
2022/08/27 12:38:05;;;;;;;13.13;11.68;;;27.80;99.90;;;;;;4956204;29;20452;-93
2022/08/27 12:40:56;;;;;;;16.57;11.93;;;27.90;99.90;;;;;;4939916;29;20416;-92
2022/08/27 12:43:27;;;;;;;13.80;12.27;;;28.10;99.90;;;;;;4962550;28;20412;-92
2022/08/27 12:46:02;;;;;;;14.25;11.38;;;28.10;99.90;;;;;;4954893;29;20447;-91
2022/08/27 12:48:46;;;;;;;13.57;11.77;;;28.20;99.90;;;;;;4954552;28;20824;-91
2022/08/27 12:51:23;;;;;;;16.17;12.13;;;28.30;99.90;;;;;;4954255;29;20420;-91
2022/08/27 12:54:19;;;;;;;14.68;12.27;;;28.30;99.90;;;;;;4949080;28;20902;-91
2022/08/27 12:57:20;;;;;;;14.35;11.88;;;28.30;99.90;;;;;;4940902;29;20440;-93
2022/08/27 13:00:00;;;;;;;14.93;12.15;;;28.30;99.90;;;;;;4953581;28;20787;-92
2022/08/27 13:02:46;;;;;;;16.95;12.10;;;28.40;99.90;;;;;;4946042;29;20416;-91
2022/08/27 13:05:19;;;;;;;15.90;12.55;;;28.40;99.90;;;;;;4940712;29;20412;-94
2022/08/27 13:07:49;;;;;;;14.60;11.98;;;28.60;99.90;;;;;;4955333;29;20779;-91
2022/08/27 13:10:25;;;;;;;16.55;12.88;;;28.50;99.90;;;;;;4956252;28;20420;-93
2022/08/27 13:13:17;;;;;;;17.80;13.00;;;28.60;99.90;;;;;;4956677;29;20420;-93